createdAt,value
2017-03-04T00:00:53.513Z,23.57
2017-03-04T00:02:03.432Z,23.57
2017-03-04T00:03:12.984Z,23.38
2017-03-04T00:04:22.552Z,23.47
2017-03-04T00:05:32.127Z,23.57
2017-03-04T00:06:41.709Z,23.67
2017-03-04T00:07:51.662Z,23.38
2017-03-04T00:09:01.982Z,23.09
2017-03-04T00:10:10.777Z,23.09
2017-03-04T00:11:20.322Z,23.28
2017-03-04T00:12:29.431Z,23.19
2017-03-04T00:13:38.149Z,23.28
2017-03-04T00:14:48.049Z,23.57
2017-03-04T00:15:57.605Z,23.47
2017-03-04T00:17:07.187Z,23.47
2017-03-04T00:18:17.167Z,23.19
2017-03-04T00:19:26.737Z,23.38
2017-03-04T00:20:35.908Z,23.67
2017-03-04T00:21:45.866Z,23.38
2017-03-04T00:22:55.813Z,23.67
2017-03-04T00:24:04.953Z,23.57
2017-03-04T00:25:15.260Z,23.18
2017-03-04T00:26:25.955Z,23.67
2017-03-04T00:27:35.140Z,23.75
2017-03-04T00:28:45.679Z,23.66
2017-03-04T00:29:55.185Z,23.67
2017-03-04T00:31:04.414Z,23.56
2017-03-04T00:32:13.979Z,23.75
2017-03-04T00:33:23.542Z,23.27
2017-03-04T00:34:33.107Z,23.66
2017-03-04T00:35:42.283Z,23.85
2017-03-04T00:36:52.229Z,23.46
2017-03-04T00:38:02.383Z,23.56
2017-03-04T00:39:11.567Z,23.27
2017-03-04T00:40:21.480Z,23.46
2017-03-04T00:41:31.422Z,23.37
2017-03-04T00:42:41.400Z,23.46
2017-03-04T00:43:50.985Z,23.46
2017-03-04T00:45:00.944Z,23.56
2017-03-04T00:46:10.899Z,23.37
2017-03-04T00:47:20.841Z,23.56
2017-03-04T00:48:30.046Z,23.46
2017-03-04T00:49:39.664Z,23.75
2017-03-04T00:50:49.231Z,23.75
2017-03-04T00:51:58.769Z,23.66
2017-03-04T00:53:08.505Z,23.56
2017-03-04T00:54:18.424Z,23.75
2017-03-04T00:55:28.332Z,23.75
2017-03-04T00:56:37.518Z,23.75
2017-03-04T00:57:47.441Z,23.66
2017-03-04T00:58:57.755Z,23.46
2017-03-04T01:00:07.303Z,23.66
2017-03-04T01:01:16.864Z,23.56
2017-03-04T01:02:26.053Z,23.75
2017-03-04T01:03:35.627Z,23.56
2017-03-04T01:04:45.206Z,23.75
2017-03-04T01:05:54.796Z,23.85
2017-03-04T01:07:04.752Z,23.75
2017-03-04T01:08:13.940Z,23.56
2017-03-04T01:09:24.293Z,23.75
2017-03-04T01:10:33.466Z,23.85
2017-03-04T01:11:42.633Z,23.85
2017-03-04T01:12:51.429Z,23.66
2017-03-04T01:14:00.624Z,24.14
2017-03-04T01:15:10.567Z,23.94
2017-03-04T01:16:20.163Z,23.66
2017-03-04T01:17:30.124Z,24.04
2017-03-04T01:18:40.083Z,24.14
2017-03-04T01:19:50.039Z,23.75
2017-03-04T01:21:00.002Z,24.14
2017-03-04T01:22:10.358Z,24.04
2017-03-04T01:23:19.163Z,24.04
2017-03-04T01:24:28.717Z,24.14
2017-03-04T01:25:38.234Z,24.14
2017-03-04T01:26:47.406Z,24.14
2017-03-04T01:27:56.588Z,23.94
2017-03-04T01:29:05.748Z,24.14
2017-03-04T01:30:15.265Z,23.94
2017-03-04T01:31:24.852Z,23.94
2017-03-04T01:32:35.576Z,24.14
2017-03-04T01:33:45.155Z,24.23
2017-03-04T01:34:54.354Z,24.43
2017-03-04T01:36:03.510Z,24.43
2017-03-04T01:37:13.469Z,24.23
2017-03-04T01:38:22.647Z,24.23
2017-03-04T01:39:32.181Z,24.04
2017-03-04T01:40:42.091Z,24.04
2017-03-04T01:41:51.709Z,24.52
2017-03-04T01:43:01.268Z,24.23
2017-03-04T01:44:10.816Z,23.94
2017-03-04T01:45:20.015Z,24.43
2017-03-04T01:46:29.195Z,24.43
2017-03-04T01:47:38.753Z,24.14
2017-03-04T01:48:48.708Z,24.71
2017-03-04T01:49:58.659Z,24.43
2017-03-04T01:51:09.004Z,24.43
2017-03-04T01:52:18.578Z,24.14
2017-03-04T01:53:28.519Z,24.41
2017-03-04T01:54:38.864Z,24.04
2017-03-04T01:55:48.828Z,24.14
2017-03-04T01:56:58.082Z,24.33
2017-03-04T01:58:07.685Z,24.14
2017-03-04T01:59:17.641Z,24.41
2017-03-04T02:00:27.557Z,24.43
2017-03-04T02:01:36.298Z,24.43
2017-03-04T02:02:46.204Z,24.71
2017-03-04T02:03:55.814Z,24.52
2017-03-04T02:05:04.993Z,24.71
2017-03-04T02:06:14.513Z,24.33
2017-03-04T02:07:24.499Z,24.23
2017-03-04T02:08:34.080Z,24.13
2017-03-04T02:09:43.661Z,24.33
2017-03-04T02:10:53.809Z,24.22
2017-03-04T02:12:03.408Z,24.52
2017-03-04T02:13:12.964Z,24.51
2017-03-04T02:14:23.314Z,24.32
2017-03-04T02:15:32.907Z,24.23
2017-03-04T02:16:42.814Z,24.51
2017-03-04T02:17:52.020Z,24.22
2017-03-04T02:19:01.580Z,24.32
2017-03-04T02:20:11.916Z,24.61
2017-03-04T02:21:22.259Z,24.61
2017-03-04T02:22:31.068Z,24.61
2017-03-04T02:23:41.402Z,24.61
2017-03-04T02:24:51.351Z,24.32
2017-03-04T02:26:00.794Z,24.32
2017-03-04T02:27:10.358Z,24.51
2017-03-04T02:28:19.934Z,24.7
2017-03-04T02:29:30.265Z,24.51
2017-03-04T02:30:40.603Z,24.41
2017-03-04T02:31:50.133Z,24.41
2017-03-04T02:32:59.697Z,24.41
2017-03-04T02:34:08.857Z,24.32
2017-03-04T02:35:19.172Z,24.61
2017-03-04T02:36:28.685Z,24.7
2017-03-04T02:37:38.224Z,24.32
2017-03-04T02:38:47.374Z,24.22
2017-03-04T02:39:56.551Z,25.01
2017-03-04T02:41:05.737Z,24.7
2017-03-04T02:42:15.310Z,24.9
2017-03-04T02:43:24.476Z,24.7
2017-03-04T02:44:33.221Z,24.41
2017-03-04T02:45:42.734Z,24.8
2017-03-04T02:46:52.678Z,24.61
2017-03-04T02:48:02.219Z,24.51
2017-03-04T02:49:12.219Z,24.9
2017-03-04T02:50:22.581Z,24.9
2017-03-04T02:51:32.138Z,24.8
2017-03-04T02:52:42.094Z,24.9
2017-03-04T02:53:52.047Z,24.41
2017-03-04T02:55:00.828Z,24.7
2017-03-04T02:56:10.752Z,24.51
2017-03-04T02:57:20.693Z,24.8
2017-03-04T02:58:29.856Z,24.8
2017-03-04T02:59:38.988Z,24.9
2017-03-04T03:00:48.957Z,24.51
2017-03-04T03:01:58.959Z,24.9
2017-03-04T03:03:08.952Z,24.9
2017-03-04T03:04:18.168Z,24.9
2017-03-04T03:05:27.349Z,24.99
2017-03-04T03:06:36.926Z,24.8
2017-03-04T03:07:46.502Z,24.51
2017-03-04T03:08:56.852Z,24.9
2017-03-04T03:10:07.227Z,24.32
2017-03-04T03:11:16.812Z,24.7
2017-03-04T03:12:26.392Z,24.61
2017-03-04T03:13:35.966Z,24.61
2017-03-04T03:14:46.300Z,24.9
2017-03-04T03:15:55.884Z,24.61
2017-03-04T03:17:05.426Z,24.9
2017-03-04T03:18:15.345Z,24.9
2017-03-04T03:19:24.903Z,24.8
2017-03-04T03:20:34.865Z,24.8
2017-03-04T03:21:45.209Z,24.61
2017-03-04T03:22:55.549Z,24.9
2017-03-04T03:24:05.895Z,24.8
2017-03-04T03:25:15.466Z,24.9
2017-03-04T03:26:25.061Z,24.9
2017-03-04T03:27:35.008Z,25.09
2017-03-04T03:28:43.768Z,25.18
2017-03-04T03:29:52.961Z,25.28
2017-03-04T03:31:01.771Z,25.18
2017-03-04T03:32:12.139Z,25.18
2017-03-04T03:33:21.692Z,25.28
2017-03-04T03:34:38.241Z,25.09
2017-03-04T03:35:47.442Z,25.18
2017-03-04T03:36:57.040Z,24.7
2017-03-04T03:38:07.073Z,25.09
2017-03-04T03:39:15.880Z,25.28
2017-03-04T03:40:25.512Z,25.09
2017-03-04T03:41:34.917Z,25.28
2017-03-04T03:42:44.912Z,24.99
2017-03-04T03:43:54.899Z,24.99
2017-03-04T03:45:05.290Z,25.09
2017-03-04T03:46:14.886Z,25.18
2017-03-04T03:47:24.096Z,25.38
2017-03-04T03:48:33.636Z,24.99
2017-03-04T03:49:43.612Z,25.09
2017-03-04T03:50:53.588Z,25.38
2017-03-04T03:52:03.942Z,25.18
2017-03-04T03:53:13.517Z,25.09
2017-03-04T03:54:22.720Z,25.09
2017-03-04T03:55:32.694Z,25.28
2017-03-04T03:56:43.071Z,25.18
2017-03-04T03:57:53.034Z,25.47
2017-03-04T03:59:03.026Z,25.47
2017-03-04T04:00:13.022Z,25.47
2017-03-04T04:01:22.231Z,25.47
2017-03-04T04:02:32.210Z,25.18
2017-03-04T04:03:42.552Z,25.76
2017-03-04T04:04:53.068Z,25.09
2017-03-04T04:06:02.309Z,25.28
2017-03-04T04:07:12.667Z,25.18
2017-03-04T04:08:21.879Z,25.18
2017-03-04T04:09:31.471Z,25.28
2017-03-04T04:10:41.833Z,25.47
2017-03-04T04:11:51.807Z,25.67
2017-03-04T04:13:01.790Z,25.57
2017-03-04T04:14:10.998Z,25.38
2017-03-04T04:15:21.394Z,25.38
2017-03-04T04:16:30.578Z,25.65
2017-03-04T04:17:40.124Z,25.67
2017-03-04T04:18:49.733Z,25.17
2017-03-04T04:19:59.327Z,25.07
2017-03-04T04:21:08.546Z,25.57
2017-03-04T04:22:17.753Z,25.09
2017-03-04T04:23:27.575Z,25.18
2017-03-04T04:24:37.178Z,25.07
2017-03-04T04:25:47.171Z,25.85
2017-03-04T04:26:56.377Z,25.09
2017-03-04T04:28:06.363Z,25.18
2017-03-04T04:29:15.571Z,25.18
2017-03-04T04:30:24.777Z,25.09
2017-03-04T04:31:33.974Z,25.28
2017-03-04T04:32:42.765Z,25.76
2017-03-04T04:33:52.346Z,25.94
2017-03-04T04:35:02.268Z,26.15
2017-03-04T04:36:12.196Z,25.28
2017-03-04T04:37:21.350Z,25.47
2017-03-04T04:38:30.560Z,25.74
2017-03-04T04:39:40.567Z,25.65
2017-03-04T04:40:50.912Z,26.05
2017-03-04T04:42:00.107Z,25.27
2017-03-04T04:43:10.086Z,25.36
2017-03-04T04:44:20.079Z,25.38
2017-03-04T04:45:29.284Z,25.38
2017-03-04T04:46:39.261Z,25.38
2017-03-04T04:47:48.073Z,25.38
2017-03-04T04:48:57.283Z,25.57
2017-03-04T04:50:06.870Z,26.04
2017-03-04T04:51:16.040Z,26.04
2017-03-04T04:52:25.613Z,25.47
2017-03-04T04:53:34.820Z,25.57
2017-03-04T04:54:44.422Z,25.27
2017-03-04T04:55:54.394Z,25.76
2017-03-04T04:57:03.942Z,25.84
2017-03-04T04:58:14.323Z,25.27
2017-03-04T04:59:24.311Z,25.74
2017-03-04T05:00:33.905Z,25.56
2017-03-04T05:01:43.134Z,25.65
2017-03-04T05:02:51.957Z,25.36
2017-03-04T05:04:01.560Z,25.27
2017-03-04T05:05:11.144Z,25.27
2017-03-04T05:06:20.730Z,25.74
2017-03-04T05:07:30.344Z,25.74
2017-03-04T05:08:39.930Z,25.84
2017-03-04T05:09:49.897Z,25.65
2017-03-04T05:10:59.099Z,25.65
2017-03-04T05:12:08.345Z,25.46
2017-03-04T05:13:17.939Z,25.56
2017-03-04T05:14:27.932Z,25.65
2017-03-04T05:15:37.494Z,25.74
2017-03-04T05:16:47.436Z,25.74
2017-03-04T05:17:57.758Z,25.74
2017-03-04T05:19:07.330Z,25.56
2017-03-04T05:20:17.295Z,25.74
2017-03-04T05:21:26.896Z,25.74
2017-03-04T05:22:36.545Z,25.56
2017-03-04T05:23:46.920Z,25.74
2017-03-04T05:24:56.892Z,25.56
2017-03-04T05:26:06.872Z,25.74
2017-03-04T05:27:16.859Z,25.74
2017-03-04T05:28:27.246Z,25.28
2017-03-04T05:29:36.845Z,25.76
2017-03-04T05:30:46.832Z,25.27
2017-03-04T05:31:56.826Z,25.27
2017-03-04T05:33:06.425Z,25.28
2017-03-04T05:34:15.621Z,25.76
2017-03-04T05:35:24.798Z,25.94
2017-03-04T05:36:33.943Z,25.28
2017-03-04T05:37:43.852Z,25.28
2017-03-04T05:38:54.177Z,25.76
2017-03-04T05:40:04.541Z,25.84
2017-03-04T05:41:14.511Z,25.95
2017-03-04T05:42:24.506Z,25.84
2017-03-04T05:43:34.488Z,25.38
2017-03-04T05:44:44.454Z,25.28
2017-03-04T05:45:53.645Z,26.24
2017-03-04T05:47:03.195Z,25.36
2017-03-04T05:48:12.385Z,25.95
2017-03-04T05:49:22.370Z,25.47
2017-03-04T05:50:31.955Z,25.95
2017-03-04T05:51:41.168Z,25.47
2017-03-04T05:52:50.784Z,25.95
2017-03-04T05:53:59.968Z,25.28
2017-03-04T05:55:09.195Z,25.85
2017-03-04T05:56:19.576Z,25.95
2017-03-04T05:57:29.547Z,25.57
2017-03-04T05:58:39.114Z,25.76
2017-03-04T05:59:48.645Z,25.18
2017-03-04T06:00:58.623Z,25.18
2017-03-04T06:02:08.588Z,25.95
2017-03-04T06:03:18.147Z,25.57
2017-03-04T06:04:27.676Z,25.95
2017-03-04T06:05:37.609Z,25.95
2017-03-04T06:06:47.187Z,25.09
2017-03-04T06:07:57.181Z,25.76
2017-03-04T06:09:06.366Z,25.09
2017-03-04T06:10:15.935Z,25.09
2017-03-04T06:11:25.867Z,25.09
2017-03-04T06:12:35.067Z,25.76
2017-03-04T06:13:45.051Z,25.76
2017-03-04T06:14:55.026Z,25.38
2017-03-04T06:16:04.993Z,25.28
2017-03-04T06:17:15.764Z,25.67
2017-03-04T06:18:26.130Z,25.67
2017-03-04T06:19:36.473Z,25.57
2017-03-04T06:20:45.611Z,25.67
2017-03-04T06:21:55.200Z,25.57
2017-03-04T06:23:05.157Z,25.57
2017-03-04T06:24:15.096Z,25.58
2017-03-04T06:25:23.918Z,25.68
2017-03-04T06:26:32.741Z,25.58
2017-03-04T06:27:41.940Z,25.47
2017-03-04T06:28:51.173Z,25.29
2017-03-04T06:30:01.113Z,25.58
2017-03-04T06:31:11.088Z,25.29
2017-03-04T06:32:21.029Z,25.1
2017-03-04T06:33:30.226Z,25.78
2017-03-04T06:34:40.561Z,25.1
2017-03-04T06:35:50.888Z,25.2
2017-03-04T06:37:00.046Z,25.48
2017-03-04T06:38:10.026Z,25.01
2017-03-04T06:39:19.612Z,25.01
2017-03-04T06:40:29.631Z,25.29
2017-03-04T06:41:39.220Z,25.01
2017-03-04T06:42:49.527Z,25.39
2017-03-04T06:43:59.884Z,25.1
2017-03-04T06:45:09.846Z,25.01
2017-03-04T06:46:19.815Z,25.29
2017-03-04T06:47:29.784Z,25.29
2017-03-04T06:48:39.758Z,25.2
2017-03-04T06:49:48.924Z,25.01
2017-03-04T06:50:58.915Z,24.91
2017-03-04T06:52:08.896Z,25.29
2017-03-04T06:53:18.498Z,25.29
2017-03-04T06:54:28.483Z,24.81
2017-03-04T06:55:38.072Z,24.71
2017-03-04T06:56:47.275Z,24.91
2017-03-04T06:57:57.273Z,24.81
2017-03-04T06:59:06.865Z,24.92
2017-03-04T07:00:16.069Z,25.02
2017-03-04T07:01:26.030Z,24.82
2017-03-04T07:02:36.008Z,25.02
2017-03-04T07:03:45.581Z,24.92
2017-03-04T07:04:55.948Z,24.82
2017-03-04T07:06:05.921Z,24.34
2017-03-04T07:07:15.936Z,24.92
2017-03-04T07:08:26.259Z,24.34
2017-03-04T07:09:35.471Z,24.82
2017-03-04T07:10:44.679Z,24.44
2017-03-04T07:11:54.645Z,24.44
2017-03-04T07:13:04.625Z,24.92
2017-03-04T07:14:13.817Z,24.34
2017-03-04T07:15:23.360Z,24.44
2017-03-04T07:16:32.950Z,24.34
2017-03-04T07:17:43.308Z,24.44
2017-03-04T07:18:52.510Z,24.92
2017-03-04T07:20:01.702Z,24.92
2017-03-04T07:21:11.694Z,24.92
2017-03-04T07:22:21.279Z,24.73
2017-03-04T07:23:31.235Z,24.54
2017-03-04T07:24:41.199Z,24.44
2017-03-04T07:25:50.772Z,25.02
2017-03-04T07:27:00.737Z,25.11
2017-03-04T07:28:10.702Z,24.63
2017-03-04T07:29:19.864Z,24.63
2017-03-04T07:30:28.649Z,24.45
2017-03-04T07:31:39.023Z,24.73
2017-03-04T07:32:48.254Z,24.63
2017-03-04T07:33:57.818Z,24.63
2017-03-04T07:35:07.770Z,24.24
2017-03-04T07:36:17.762Z,24.73
2017-03-04T07:37:28.517Z,24.35
2017-03-04T07:38:38.137Z,24.63
2017-03-04T07:39:48.543Z,24.65
2017-03-04T07:40:58.507Z,24.65
2017-03-04T07:42:07.691Z,24.65
2017-03-04T07:43:17.626Z,24.35
2017-03-04T07:44:27.570Z,24.55
2017-03-04T07:45:37.884Z,24.26
2017-03-04T07:46:47.107Z,24.65
2017-03-04T07:47:57.080Z,24.55
2017-03-04T07:49:05.913Z,24.55
2017-03-04T07:50:15.532Z,24.55
2017-03-04T07:51:25.140Z,24.45
2017-03-04T07:52:33.925Z,24.45
2017-03-04T07:53:43.493Z,24.55
2017-03-04T07:54:53.086Z,24.35
2017-03-04T07:56:02.253Z,24.07
2017-03-04T07:57:12.225Z,24.07
2017-03-04T07:58:21.070Z,24.35
2017-03-04T07:59:30.268Z,24.26
2017-03-04T08:00:39.447Z,24.26
2017-03-04T08:01:48.216Z,24.07
2017-03-04T08:02:57.811Z,24.26
2017-03-04T08:04:06.620Z,24.07
2017-03-04T08:05:15.818Z,24.16
2017-03-04T08:06:25.031Z,24.18
2017-03-04T08:07:35.011Z,24.07
2017-03-04T08:08:44.949Z,24.27
2017-03-04T08:09:54.496Z,23.88
2017-03-04T08:11:04.105Z,24.08
2017-03-04T08:12:13.705Z,24.08
2017-03-04T08:13:23.310Z,23.69
2017-03-04T08:14:32.503Z,23.69
2017-03-04T08:15:41.692Z,24.18
2017-03-04T08:16:51.689Z,23.88
2017-03-04T08:18:01.259Z,23.6
2017-03-04T08:19:11.185Z,23.6
2017-03-04T08:20:20.004Z,23.6
2017-03-04T08:21:29.208Z,23.6
2017-03-04T08:22:38.340Z,23.31
2017-03-04T08:23:47.896Z,23.21
2017-03-04T08:24:57.473Z,23.61
2017-03-04T08:26:08.021Z,23.69
2017-03-04T08:27:17.217Z,23.51
2017-03-04T08:28:27.202Z,23.71
2017-03-04T08:29:36.421Z,23.51
2017-03-04T08:30:45.984Z,23.51
2017-03-04T08:31:55.893Z,23.61
2017-03-04T08:33:05.461Z,23.22
2017-03-04T08:34:15.070Z,23.32
2017-03-04T08:35:24.273Z,23.32
2017-03-04T08:36:33.505Z,23.41
2017-03-04T08:37:42.317Z,23.13
2017-03-04T08:38:52.687Z,23.22
2017-03-04T08:40:02.278Z,22.93
2017-03-04T08:41:11.484Z,23.14
2017-03-04T08:42:21.077Z,23.32
2017-03-04T08:43:31.088Z,23.24
2017-03-04T08:44:41.062Z,22.94
2017-03-04T08:45:50.649Z,23.14
2017-03-04T08:46:59.877Z,23.04
2017-03-04T08:48:09.481Z,22.75
2017-03-04T08:49:19.079Z,23.04
2017-03-04T08:50:29.038Z,22.85
2017-03-04T08:51:38.969Z,22.75
2017-03-04T08:52:48.929Z,22.94
2017-03-04T08:53:58.132Z,22.94
2017-03-04T08:55:08.360Z,22.94
2017-03-04T08:56:17.549Z,22.85
2017-03-04T08:57:27.113Z,23.04
2017-03-04T08:58:36.324Z,22.94
2017-03-04T08:59:45.902Z,22.94
2017-03-04T09:00:55.478Z,22.75
2017-03-04T09:02:05.487Z,22.94
2017-03-04T09:03:15.848Z,22.85
2017-03-04T09:04:26.618Z,22.75
2017-03-04T09:05:36.238Z,22.94
2017-03-04T09:06:45.440Z,22.75
2017-03-04T09:07:55.394Z,22.56
2017-03-04T09:09:06.032Z,22.66
2017-03-04T09:10:15.635Z,22.66
2017-03-04T09:11:25.219Z,22.56
2017-03-04T09:12:35.222Z,22.36
2017-03-04T09:13:44.063Z,22.47
2017-03-04T09:14:54.434Z,22.28
2017-03-04T09:16:04.432Z,22.28
2017-03-04T09:17:14.043Z,22.57
2017-03-04T09:18:23.267Z,22.76
2017-03-04T09:19:32.840Z,22.47
2017-03-04T09:20:42.770Z,22.67
2017-03-04T09:21:51.957Z,22.67
2017-03-04T09:23:01.575Z,22.38
2017-03-04T09:24:11.188Z,22.57
2017-03-04T09:25:21.155Z,22.67
2017-03-04T09:26:31.144Z,22.76
2017-03-04T09:27:41.185Z,22.38
2017-03-04T09:28:51.591Z,22.38
2017-03-04T09:30:01.042Z,22.57
2017-03-04T09:31:09.856Z,22.28
2017-03-04T09:32:19.051Z,22.67
2017-03-04T09:33:29.425Z,22.57
2017-03-04T09:34:38.247Z,22.47
2017-03-04T09:35:47.834Z,22.76
2017-03-04T09:36:57.826Z,22.57
2017-03-04T09:38:08.186Z,22.67
2017-03-04T09:39:18.580Z,22.86
2017-03-04T09:40:28.554Z,22.86
2017-03-04T09:41:38.128Z,22.76
2017-03-04T09:42:46.933Z,22.57
2017-03-04T09:43:56.507Z,22.86
2017-03-04T09:45:05.714Z,22.96
2017-03-04T09:46:16.484Z,22.86
2017-03-04T09:47:25.662Z,22.96
2017-03-04T09:48:35.219Z,22.76
2017-03-04T09:49:44.820Z,22.86
2017-03-04T09:50:54.432Z,22.86
2017-03-04T09:52:04.410Z,22.76
2017-03-04T09:53:13.606Z,22.86
2017-03-04T09:54:23.593Z,22.96
2017-03-04T09:55:33.576Z,22.67
2017-03-04T09:56:43.168Z,22.67
2017-03-04T09:57:52.374Z,22.67
2017-03-04T09:59:03.113Z,22.57
2017-03-04T10:00:12.677Z,22.57
2017-03-04T10:01:22.641Z,22.76
2017-03-04T10:02:32.635Z,22.57
2017-03-04T10:03:42.642Z,22.57
2017-03-04T10:04:53.029Z,22.47
2017-03-04T10:06:02.622Z,22
2017-03-04T10:07:12.217Z,22.29
2017-03-04T10:08:21.816Z,22.39
2017-03-04T10:09:31.017Z,21.91
2017-03-04T10:10:41.000Z,22
2017-03-04T10:11:50.639Z,22
2017-03-04T10:13:00.250Z,21.52
2017-03-04T10:14:09.804Z,21.62
2017-03-04T10:15:20.126Z,21.34
2017-03-04T10:16:28.953Z,21.34
2017-03-04T10:17:38.157Z,21.15
2017-03-04T10:18:46.964Z,21.25
2017-03-04T10:19:56.921Z,21.25
2017-03-04T10:21:06.894Z,20.86
2017-03-04T10:22:16.859Z,20.96
2017-03-04T10:23:26.080Z,20.77
2017-03-04T10:24:35.682Z,21.35
2017-03-04T10:25:45.693Z,21.25
2017-03-04T10:26:55.318Z,21.25
2017-03-04T10:28:04.908Z,21.54
2017-03-04T10:29:14.115Z,21.34
2017-03-04T10:30:23.716Z,21.62
2017-03-04T10:31:32.867Z,21.53
2017-03-04T10:32:42.064Z,21.44
2017-03-04T10:33:51.628Z,21.92
2017-03-04T10:35:01.717Z,21.44
2017-03-04T10:36:11.709Z,21.62
2017-03-04T10:37:20.876Z,21.44
2017-03-04T10:38:30.853Z,21.64
2017-03-04T10:39:40.818Z,21.15
2017-03-04T10:40:51.206Z,21.06
2017-03-04T10:42:00.399Z,20.49
2017-03-04T10:43:09.983Z,20.11
2017-03-04T10:44:19.175Z,19.64
2017-03-04T10:45:28.379Z,19.54
2017-03-04T10:46:37.204Z,18.97
2017-03-04T10:47:46.368Z,19.17
2017-03-04T10:48:55.531Z,18.98
2017-03-04T10:50:04.700Z,18.98
2017-03-04T10:51:14.298Z,18.79
2017-03-04T10:52:24.336Z,18.88
2017-03-04T10:53:33.919Z,18.88
2017-03-04T10:54:43.500Z,18.88
2017-03-04T10:55:53.080Z,19.07
2017-03-04T10:57:03.037Z,18.98
2017-03-04T10:58:13.357Z,19.27
2017-03-04T10:59:23.746Z,19.27
2017-03-04T11:00:33.698Z,18.59
2017-03-04T11:01:42.857Z,18.12
2017-03-04T11:02:52.438Z,17.74
2017-03-04T11:04:01.971Z,17.44
2017-03-04T11:05:11.554Z,17.26
2017-03-04T11:06:21.511Z,17.07
2017-03-04T11:07:30.703Z,17.65
2017-03-04T11:08:40.290Z,17.55
2017-03-04T11:09:50.649Z,17.55
2017-03-04T11:11:00.618Z,17.83
2017-03-04T11:12:09.769Z,18.32
2017-03-04T11:13:19.713Z,18.51
2017-03-04T11:14:28.907Z,18.22
2017-03-04T11:15:38.091Z,18.12
2017-03-04T11:16:47.321Z,18.03
2017-03-04T11:17:57.310Z,17.35
2017-03-04T11:19:07.694Z,16.97
2017-03-04T11:20:17.699Z,16.39
2017-03-04T11:21:27.295Z,15.73
2017-03-04T11:22:36.547Z,15.55
2017-03-04T11:23:46.550Z,15.17
2017-03-04T11:24:56.150Z,15.37
2017-03-04T11:26:06.362Z,15.17
2017-03-04T11:27:15.571Z,14.88
2017-03-04T11:28:25.178Z,14.89
2017-03-04T11:29:35.187Z,14.4
2017-03-04T11:30:44.401Z,14.31
2017-03-04T11:31:54.012Z,13.54
2017-03-04T11:33:03.631Z,13.64
2017-03-04T11:34:13.228Z,13.35
2017-03-04T11:35:23.183Z,13.64
2017-03-04T11:36:33.094Z,14.03
2017-03-04T11:37:42.647Z,13.83
2017-03-04T11:38:51.460Z,13.73
2017-03-04T11:40:01.001Z,14.22
2017-03-04T11:41:10.608Z,14.31
2017-03-04T11:42:20.611Z,13.83
2017-03-04T11:43:29.826Z,13.54
2017-03-04T11:44:39.450Z,12.96
2017-03-04T11:45:49.428Z,13.07
2017-03-04T11:46:59.035Z,12.87
2017-03-04T11:48:09.019Z,12.68
2017-03-04T11:49:19.010Z,12.68
2017-03-04T11:50:28.611Z,12.49
2017-03-04T11:51:38.587Z,12.4
2017-03-04T11:52:48.537Z,11.91
2017-03-04T11:53:58.111Z,11.52
2017-03-04T11:55:08.117Z,10.95
2017-03-04T11:56:16.927Z,10.27
2017-03-04T11:57:27.296Z,9.79
2017-03-04T11:58:37.891Z,9.31
2017-03-04T11:59:47.881Z,9.61
2017-03-04T12:00:57.091Z,9.51
2017-03-04T12:02:06.662Z,10.68
2017-03-04T12:03:15.892Z,11.27
2017-03-04T12:04:26.614Z,11.35
2017-03-04T12:05:36.215Z,12.23
2017-03-04T12:06:46.211Z,12.9
2017-03-04T12:07:56.198Z,13.67
2017-03-04T12:09:05.832Z,14.53
2017-03-04T12:10:15.438Z,14.91
2017-03-04T12:11:25.035Z,15.78
2017-03-04T12:12:35.032Z,15.67
2017-03-04T12:13:45.003Z,16.15
2017-03-04T12:14:54.571Z,16.93
2017-03-04T12:16:04.521Z,16.91
2017-03-04T12:17:14.506Z,17.58
2017-03-04T12:18:23.719Z,17.97
2017-03-04T12:19:33.268Z,18.25
2017-03-04T12:20:42.857Z,18.73
2017-03-04T12:21:52.831Z,19.21
2017-03-04T12:23:02.427Z,19.4
2017-03-04T12:24:12.008Z,19.68
2017-03-04T12:25:21.612Z,20.26
2017-03-04T12:26:31.200Z,20.26
2017-03-04T12:27:41.214Z,20.65
2017-03-04T12:28:51.020Z,20.64
2017-03-04T12:30:00.588Z,20.73
2017-03-04T12:31:10.373Z,21.02
2017-03-04T12:32:19.600Z,21.22
2017-03-04T12:33:28.413Z,21.5
2017-03-04T12:34:37.636Z,21.4
2017-03-04T12:35:47.224Z,21.98
2017-03-04T12:36:56.852Z,21.69
2017-03-04T12:38:06.864Z,22.17
2017-03-04T12:39:16.841Z,22.06
2017-03-04T12:40:26.806Z,22.06
2017-03-04T12:41:36.812Z,22.36
2017-03-04T12:42:46.764Z,22.65
2017-03-04T12:43:56.307Z,22.25
2017-03-04T12:45:06.690Z,22.54
2017-03-04T12:46:16.176Z,22.83
2017-03-04T12:47:25.781Z,22.64
2017-03-04T12:48:35.349Z,22.44
2017-03-04T12:49:45.325Z,22.74
2017-03-04T12:50:54.914Z,22.74
2017-03-04T12:52:05.270Z,22.83
2017-03-04T12:53:14.818Z,23.22
2017-03-04T12:54:24.418Z,23.21
2017-03-04T12:55:34.440Z,23.21
2017-03-04T12:56:44.048Z,23.3
2017-03-04T12:57:53.255Z,23.3
2017-03-04T12:59:03.222Z,23.5
2017-03-04T13:00:12.793Z,23.79
2017-03-04T13:01:22.391Z,23.21
2017-03-04T13:02:31.606Z,23.79
2017-03-04T13:03:40.774Z,23.68
2017-03-04T13:04:49.929Z,23.68
2017-03-04T13:05:59.511Z,23.68
2017-03-04T13:07:08.385Z,23.58
2017-03-04T13:08:17.597Z,23.58
2017-03-04T13:09:27.552Z,23.87
2017-03-04T13:10:36.329Z,23.97
2017-03-04T13:11:45.944Z,23.97
2017-03-04T13:12:55.547Z,24.07
2017-03-04T13:14:05.528Z,24.07
2017-03-04T13:15:14.351Z,24.16
2017-03-04T13:16:23.954Z,24.16
2017-03-04T13:17:33.963Z,23.87
2017-03-04T13:18:43.141Z,24.55
2017-03-04T13:19:52.276Z,24.55
2017-03-04T13:21:01.799Z,24.55
2017-03-04T13:22:11.351Z,24.24
2017-03-04T13:23:21.315Z,24.24
2017-03-04T13:24:30.973Z,24.24
2017-03-04T13:25:40.570Z,24.54
2017-03-04T13:26:50.907Z,24.63
2017-03-04T13:28:00.420Z,24.34
2017-03-04T13:29:10.759Z,24.73
2017-03-04T13:30:20.172Z,25.02
2017-03-04T13:31:29.729Z,24.82
2017-03-04T13:32:38.932Z,25.12
2017-03-04T13:33:48.914Z,25.12
2017-03-04T13:34:59.292Z,24.54
2017-03-04T13:36:08.895Z,25.12
2017-03-04T13:37:18.056Z,25.02
2017-03-04T13:38:27.608Z,25.02
2017-03-04T13:39:36.390Z,25.02
2017-03-04T13:40:45.629Z,25.02
2017-03-04T13:41:56.375Z,24.82
2017-03-04T13:43:05.766Z,25.02
2017-03-04T13:44:15.382Z,24.73
2017-03-04T13:45:24.966Z,25.02
2017-03-04T13:46:34.955Z,24.92
2017-03-04T13:47:44.519Z,25.02
2017-03-04T13:48:54.059Z,25.02
2017-03-04T13:50:04.428Z,24.73
2017-03-04T13:51:14.791Z,25.31
2017-03-04T13:52:24.323Z,24.92
2017-03-04T13:53:33.838Z,25.02
2017-03-04T13:54:43.022Z,24.92
2017-03-04T13:55:51.835Z,24.73
2017-03-04T13:57:01.478Z,25.02
2017-03-04T13:58:11.452Z,25.12
2017-03-04T13:59:21.039Z,25.21
2017-03-04T14:00:30.578Z,25.21
2017-03-04T14:01:39.389Z,25.21
2017-03-04T14:02:48.959Z,25.12
2017-03-04T14:03:57.726Z,25.02
2017-03-04T14:05:08.002Z,25.7
2017-03-04T14:06:18.345Z,25.21
2017-03-04T14:07:28.328Z,25.21
2017-03-04T14:08:38.293Z,25.21
2017-03-04T14:09:48.236Z,25.31
2017-03-04T14:10:57.066Z,25.21
2017-03-04T14:12:07.422Z,25.6
2017-03-04T14:13:17.006Z,26.08
2017-03-04T14:14:26.952Z,26.28
2017-03-04T14:15:36.494Z,25.78
2017-03-04T14:16:46.077Z,26.08
2017-03-04T14:17:55.688Z,26.17
2017-03-04T14:19:05.669Z,25.5
2017-03-04T14:20:15.614Z,26.26
2017-03-04T14:21:25.581Z,26.17
2017-03-04T14:22:35.183Z,25.29
2017-03-04T14:23:44.773Z,25.87
2017-03-04T14:24:54.791Z,25.31
2017-03-04T14:26:04.760Z,25.2
2017-03-04T14:27:13.979Z,26.26
2017-03-04T14:28:22.805Z,26.26
2017-03-04T14:29:32.803Z,25.29
2017-03-04T14:30:43.167Z,26.17
2017-03-04T14:31:53.116Z,26.17
2017-03-04T14:33:03.102Z,25.87
2017-03-04T14:34:13.090Z,25.97
2017-03-04T14:35:22.322Z,26.17
2017-03-04T14:36:32.296Z,26.35
2017-03-04T14:37:42.266Z,25.49
2017-03-04T14:38:51.489Z,26.26
2017-03-04T14:40:00.700Z,26.17
2017-03-04T14:41:09.887Z,26.26
2017-03-04T14:42:19.502Z,26.07
2017-03-04T14:43:28.711Z,25.2
2017-03-04T14:44:38.291Z,25.2
2017-03-04T14:45:48.688Z,25.2
2017-03-04T14:46:58.284Z,25.87
2017-03-04T14:48:07.488Z,25.29
2017-03-04T14:49:17.042Z,25.29
2017-03-04T14:50:26.246Z,25.2
2017-03-04T14:51:36.054Z,26.07
2017-03-04T14:52:45.267Z,25.2
2017-03-04T14:53:54.853Z,25.68
2017-03-04T14:55:04.838Z,25.29
2017-03-04T14:56:14.046Z,25.68
2017-03-04T14:57:23.511Z,25.87
2017-03-04T14:58:33.098Z,25.09
2017-03-04T14:59:42.685Z,25.2
2017-03-04T15:00:51.913Z,25.2